sensor_id;sensor_type;location;lat;lon;timestamp;P1;durP1;ratioP1;P2;durP2;ratioP2
92;SDS011;16232;48.800;9.002;2023-06-05T00:00:42;5.13;;;3.00;;
92;SDS011;16232;48.800;9.002;2023-06-05T00:03:09;4.27;;;2.47;;
92;SDS011;16232;48.800;9.002;2023-06-05T00:05:37;6.73;;;2.53;;
92;SDS011;16232;48.800;9.002;2023-06-05T00:08:06;3.73;;;2.60;;
92;SDS011;16232;48.800;9.002;2023-06-05T00:10:33;4.23;;;2.37;;
92;SDS011;16232;48.800;9.002;2023-06-05T00:13:00;3.80;;;2.73;;
92;SDS011;16232;48.800;9.002;2023-06-05T00:15:28;2.60;;;2.40;;
92;SDS011;16232;48.800;9.002;2023-06-05T00:17:56;3.50;;;2.50;;
92;SDS011;16232;48.800;9.002;2023-06-05T00:20:24;3.47;;;2.50;;
92;SDS011;16232;48.800;9.002;2023-06-05T00:22:51;4.33;;;2.47;;
92;SDS011;16232;48.800;9.002;2023-06-05T00:25:21;3.63;;;2.80;;
92;SDS011;16232;48.800;9.002;2023-06-05T00:27:49;4.20;;;2.60;;
92;SDS011;16232;48.800;9.002;2023-06-05T00:30:16;4.83;;;2.90;;
92;SDS011;16232;48.800;9.002;2023-06-05T00:32:43;3.20;;;2.67;;
92;SDS011;16232;48.800;9.002;2023-06-05T00:35:11;3.60;;;2.50;;
92;SDS011;16232;48.800;9.002;2023-06-05T00:37:38;3.63;;;2.90;;
92;SDS011;16232;48.800;9.002;2023-06-05T00:40:06;3.93;;;2.33;;
92;SDS011;16232;48.800;9.002;2023-06-05T00:42:35;3.23;;;2.57;;
92;SDS011;16232;48.800;9.002;2023-06-05T00:45:03;3.30;;;2.43;;
92;SDS011;16232;48.800;9.002;2023-06-05T00:47:31;4.17;;;2.60;;
92;SDS011;16232;48.800;9.002;2023-06-05T00:49:59;5.07;;;3.00;;
92;SDS011;16232;48.800;9.002;2023-06-05T00:52:26;3.03;;;2.67;;
92;SDS011;16232;48.800;9.002;2023-06-05T00:54:55;4.80;;;2.80;;
92;SDS011;16232;48.800;9.002;2023-06-05T00:57:23;3.07;;;2.70;;
92;SDS011;16232;48.800;9.002;2023-06-05T00:59:52;3.50;;;2.83;;
92;SDS011;16232;48.800;9.002;2023-06-05T01:02:20;5.13;;;2.80;;
92;SDS011;16232;48.800;9.002;2023-06-05T01:04:47;2.90;;;2.40;;
92;SDS011;16232;48.800;9.002;2023-06-05T01:07:14;4.50;;;2.63;;
92;SDS011;16232;48.800;9.002;2023-06-05T01:09:43;5.27;;;2.90;;
92;SDS011;16232;48.800;9.002;2023-06-05T01:12:11;3.57;;;2.60;;
92;SDS011;16232;48.800;9.002;2023-06-05T01:14:41;3.13;;;2.50;;
92;SDS011;16232;48.800;9.002;2023-06-05T01:17:12;2.87;;;2.50;;
92;SDS011;16232;48.800;9.002;2023-06-05T01:19:42;3.17;;;2.73;;
92;SDS011;16232;48.800;9.002;2023-06-05T01:22:10;3.17;;;2.80;;
92;SDS011;16232;48.800;9.002;2023-06-05T01:24:40;4.87;;;3.10;;
92;SDS011;16232;48.800;9.002;2023-06-05T01:27:08;4.40;;;2.90;;
92;SDS011;16232;48.800;9.002;2023-06-05T01:29:38;3.13;;;2.70;;
92;SDS011;16232;48.800;9.002;2023-06-05T01:32:10;3.60;;;2.90;;
92;SDS011;16232;48.800;9.002;2023-06-05T01:34:41;2.97;;;2.47;;
92;SDS011;16232;48.800;9.002;2023-06-05T01:37:09;3.53;;;2.90;;
92;SDS011;16232;48.800;9.002;2023-06-05T01:39:41;3.20;;;2.50;;
92;SDS011;16232;48.800;9.002;2023-06-05T01:42:09;4.60;;;2.90;;
92;SDS011;16232;48.800;9.002;2023-06-05T01:44:37;3.37;;;2.80;;
92;SDS011;16232;48.800;9.002;2023-06-05T01:47:06;3.77;;;2.60;;
92;SDS011;16232;48.800;9.002;2023-06-05T01:49:34;3.60;;;3.00;;
92;SDS011;16232;48.800;9.002;2023-06-05T01:52:01;3.17;;;2.70;;
92;SDS011;16232;48.800;9.002;2023-06-05T01:54:29;6.07;;;2.90;;
92;SDS011;16232;48.800;9.002;2023-06-05T01:57:00;3.00;;;2.70;;
92;SDS011;16232;48.800;9.002;2023-06-05T01:59:29;3.27;;;2.70;;
92;SDS011;16232;48.800;9.002;2023-06-05T02:01:59;4.73;;;3.23;;
92;SDS011;16232;48.800;9.002;2023-06-05T02:04:28;3.43;;;3.03;;
92;SDS011;16232;48.800;9.002;2023-06-05T02:06:55;3.57;;;2.67;;
92;SDS011;16232;48.800;9.002;2023-06-05T02:09:28;5.10;;;3.23;;
92;SDS011;16232;48.800;9.002;2023-06-05T02:11:57;4.03;;;3.03;;
92;SDS011;16232;48.800;9.002;2023-06-05T02:14:30;3.17;;;2.43;;
92;SDS011;16232;48.800;9.002;2023-06-05T02:17:01;2.70;;;2.50;;
92;SDS011;16232;48.800;9.002;2023-06-05T02:19:31;3.73;;;3.20;;
92;SDS011;16232;48.800;9.002;2023-06-05T02:21:58;5.30;;;2.90;;
92;SDS011;16232;48.800;9.002;2023-06-05T02:24:26;3.93;;;2.80;;
92;SDS011;16232;48.800;9.002;2023-06-05T02:26:54;3.50;;;2.63;;
92;SDS011;16232;48.800;9.002;2023-06-05T02:29:22;3.67;;;2.93;;
92;SDS011;16232;48.800;9.002;2023-06-05T02:31:51;4.07;;;2.73;;
92;SDS011;16232;48.800;9.002;2023-06-05T02:34:18;5.13;;;3.20;;
92;SDS011;16232;48.800;9.002;2023-06-05T02:36:46;4.30;;;3.10;;
92;SDS011;16232;48.800;9.002;2023-06-05T02:39:15;5.20;;;3.23;;
92;SDS011;16232;48.800;9.002;2023-06-05T02:41:43;4.83;;;3.30;;
92;SDS011;16232;48.800;9.002;2023-06-05T02:44:10;3.97;;;2.87;;
92;SDS011;16232;48.800;9.002;2023-06-05T02:46:38;3.93;;;3.03;;
92;SDS011;16232;48.800;9.002;2023-06-05T02:49:06;3.90;;;3.17;;
92;SDS011;16232;48.800;9.002;2023-06-05T02:51:34;4.63;;;3.10;;
92;SDS011;16232;48.800;9.002;2023-06-05T02:54:02;3.97;;;2.93;;
92;SDS011;16232;48.800;9.002;2023-06-05T02:56:29;3.07;;;2.77;;
92;SDS011;16232;48.800;9.002;2023-06-05T02:58:57;4.43;;;3.00;;
92;SDS011;16232;48.800;9.002;2023-06-05T03:01:28;5.73;;;3.20;;
92;SDS011;16232;48.800;9.002;2023-06-05T03:03:59;3.63;;;3.00;;
92;SDS011;16232;48.800;9.002;2023-06-05T03:06:29;3.47;;;3.07;;
92;SDS011;16232;48.800;9.002;2023-06-05T03:08:58;4.57;;;3.43;;
92;SDS011;16232;48.800;9.002;2023-06-05T03:11:26;4.33;;;3.13;;
92;SDS011;16232;48.800;9.002;2023-06-05T03:13:53;4.93;;;3.10;;
92;SDS011;16232;48.800;9.002;2023-06-05T03:16:21;4.00;;;2.77;;
92;SDS011;16232;48.800;9.002;2023-06-05T03:18:59;3.13;;;2.80;;
92;SDS011;16232;48.800;9.002;2023-06-05T03:21:28;3.90;;;2.93;;
92;SDS011;16232;48.800;9.002;2023-06-05T03:23:56;3.77;;;3.33;;
92;SDS011;16232;48.800;9.002;2023-06-05T03:26:23;4.77;;;3.10;;
92;SDS011;16232;48.800;9.002;2023-06-05T03:28:51;4.27;;;3.03;;
92;SDS011;16232;48.800;9.002;2023-06-05T03:31:19;3.50;;;3.20;;
92;SDS011;16232;48.800;9.002;2023-06-05T03:33:46;3.63;;;3.03;;
92;SDS011;16232;48.800;9.002;2023-06-05T03:36:13;3.97;;;3.37;;
92;SDS011;16232;48.800;9.002;2023-06-05T03:38:43;4.50;;;3.30;;
92;SDS011;16232;48.800;9.002;2023-06-05T03:41:11;3.77;;;3.10;;
92;SDS011;16232;48.800;9.002;2023-06-05T03:43:38;4.07;;;3.20;;
92;SDS011;16232;48.800;9.002;2023-06-05T03:46:06;4.63;;;3.60;;
92;SDS011;16232;48.800;9.002;2023-06-05T03:48:35;4.27;;;3.03;;
92;SDS011;16232;48.800;9.002;2023-06-05T03:51:03;4.67;;;3.37;;
92;SDS011;16232;48.800;9.002;2023-06-05T03:53:31;5.30;;;3.00;;
92;SDS011;16232;48.800;9.002;2023-06-05T03:55:59;3.70;;;3.10;;
92;SDS011;16232;48.800;9.002;2023-06-05T03:58:28;6.90;;;3.07;;
92;SDS011;16232;48.800;9.002;2023-06-05T04:00:56;3.63;;;2.97;;
92;SDS011;16232;48.800;9.002;2023-06-05T04:03:24;4.60;;;2.93;;
92;SDS011;16232;48.800;9.002;2023-06-05T04:05:52;4.97;;;2.87;;
92;SDS011;16232;48.800;9.002;2023-06-05T04:08:20;5.40;;;3.10;;
92;SDS011;16232;48.800;9.002;2023-06-05T04:10:48;3.97;;;3.00;;
92;SDS011;16232;48.800;9.002;2023-06-05T04:13:16;5.97;;;2.93;;
92;SDS011;16232;48.800;9.002;2023-06-05T04:15:44;5.33;;;3.43;;
92;SDS011;16232;48.800;9.002;2023-06-05T04:18:11;4.43;;;2.93;;
92;SDS011;16232;48.800;9.002;2023-06-05T04:20:39;3.90;;;2.97;;
92;SDS011;16232;48.800;9.002;2023-06-05T04:23:06;3.10;;;2.80;;
92;SDS011;16232;48.800;9.002;2023-06-05T04:25:33;3.77;;;2.40;;
92;SDS011;16232;48.800;9.002;2023-06-05T04:28:01;4.83;;;3.37;;
92;SDS011;16232;48.800;9.002;2023-06-05T04:30:30;6.03;;;2.77;;
92;SDS011;16232;48.800;9.002;2023-06-05T04:32:57;5.77;;;2.80;;
92;SDS011;16232;48.800;9.002;2023-06-05T04:35:25;6.70;;;2.90;;
92;SDS011;16232;48.800;9.002;2023-06-05T04:37:52;3.70;;;2.80;;
92;SDS011;16232;48.800;9.002;2023-06-05T04:40:21;3.07;;;2.70;;
92;SDS011;16232;48.800;9.002;2023-06-05T04:42:49;4.03;;;2.80;;
92;SDS011;16232;48.800;9.002;2023-06-05T04:45:17;5.63;;;3.00;;
92;SDS011;16232;48.800;9.002;2023-06-05T04:47:47;3.90;;;3.00;;
92;SDS011;16232;48.800;9.002;2023-06-05T04:50:21;4.13;;;3.00;;
92;SDS011;16232;48.800;9.002;2023-06-05T04:52:50;4.00;;;2.67;;
92;SDS011;16232;48.800;9.002;2023-06-05T04:55:18;3.53;;;2.70;;
92;SDS011;16232;48.800;9.002;2023-06-05T04:57:46;3.80;;;2.80;;
92;SDS011;16232;48.800;9.002;2023-06-05T05:00:14;3.10;;;2.73;;
92;SDS011;16232;48.800;9.002;2023-06-05T05:02:41;4.33;;;3.10;;
92;SDS011;16232;48.800;9.002;2023-06-05T05:05:10;5.40;;;3.00;;
92;SDS011;16232;48.800;9.002;2023-06-05T05:07:39;5.63;;;3.03;;
92;SDS011;16232;48.800;9.002;2023-06-05T05:10:07;4.27;;;2.90;;
92;SDS011;16232;48.800;9.002;2023-06-05T05:12:35;4.77;;;2.80;;
92;SDS011;16232;48.800;9.002;2023-06-05T05:15:03;4.77;;;3.00;;
92;SDS011;16232;48.800;9.002;2023-06-05T05:17:31;3.93;;;2.80;;
92;SDS011;16232;48.800;9.002;2023-06-05T05:19:58;3.73;;;3.07;;
92;SDS011;16232;48.800;9.002;2023-06-05T05:22:27;4.13;;;2.80;;
92;SDS011;16232;48.800;9.002;2023-06-05T05:24:55;4.83;;;2.97;;
92;SDS011;16232;48.800;9.002;2023-06-05T05:27:22;3.43;;;2.57;;
92;SDS011;16232;48.800;9.002;2023-06-05T05:29:49;3.33;;;2.70;;
92;SDS011;16232;48.800;9.002;2023-06-05T05:32:17;4.20;;;3.17;;
92;SDS011;16232;48.800;9.002;2023-06-05T05:34:44;4.37;;;2.90;;
92;SDS011;16232;48.800;9.002;2023-06-05T05:37:12;4.13;;;2.70;;
92;SDS011;16232;48.800;9.002;2023-06-05T05:39:41;3.73;;;3.10;;
92;SDS011;16232;48.800;9.002;2023-06-05T05:42:09;3.33;;;3.00;;
92;SDS011;16232;48.800;9.002;2023-06-05T05:44:36;4.53;;;2.67;;
92;SDS011;16232;48.800;9.002;2023-06-05T05:47:07;2.63;;;2.43;;
92;SDS011;16232;48.800;9.002;2023-06-05T05:49:35;6.57;;;2.50;;
92;SDS011;16232;48.800;9.002;2023-06-05T05:52:02;4.00;;;2.70;;
92;SDS011;16232;48.800;9.002;2023-06-05T05:54:30;6.00;;;2.43;;
92;SDS011;16232;48.800;9.002;2023-06-05T05:56:59;2.90;;;2.40;;
92;SDS011;16232;48.800;9.002;2023-06-05T05:59:26;6.50;;;3.07;;
92;SDS011;16232;48.800;9.002;2023-06-05T06:01:54;4.13;;;2.70;;
92;SDS011;16232;48.800;9.002;2023-06-05T06:04:21;3.63;;;2.73;;
92;SDS011;16232;48.800;9.002;2023-06-05T06:06:49;5.20;;;3.00;;
92;SDS011;16232;48.800;9.002;2023-06-05T06:09:18;4.07;;;2.20;;
92;SDS011;16232;48.800;9.002;2023-06-05T06:11:45;5.37;;;2.70;;
92;SDS011;16232;48.800;9.002;2023-06-05T06:14:15;3.33;;;2.27;;
92;SDS011;16232;48.800;9.002;2023-06-05T06:16:42;4.90;;;2.40;;
92;SDS011;16232;48.800;9.002;2023-06-05T06:19:11;2.97;;;2.20;;
92;SDS011;16232;48.800;9.002;2023-06-05T06:21:39;5.53;;;2.47;;
92;SDS011;16232;48.800;9.002;2023-06-05T06:24:07;4.80;;;2.53;;
92;SDS011;16232;48.800;9.002;2023-06-05T06:26:35;6.10;;;2.33;;
92;SDS011;16232;48.800;9.002;2023-06-05T06:29:04;6.13;;;2.50;;
92;SDS011;16232;48.800;9.002;2023-06-05T06:31:33;4.40;;;2.07;;
92;SDS011;16232;48.800;9.002;2023-06-05T06:34:01;4.80;;;2.07;;
92;SDS011;16232;48.800;9.002;2023-06-05T06:36:28;4.70;;;2.10;;
92;SDS011;16232;48.800;9.002;2023-06-05T06:38:56;5.40;;;2.70;;
92;SDS011;16232;48.800;9.002;2023-06-05T06:41:23;6.20;;;2.50;;
92;SDS011;16232;48.800;9.002;2023-06-05T06:43:51;3.23;;;2.30;;
92;SDS011;16232;48.800;9.002;2023-06-05T06:46:18;5.67;;;2.67;;
92;SDS011;16232;48.800;9.002;2023-06-05T06:48:47;4.93;;;2.27;;
92;SDS011;16232;48.800;9.002;2023-06-05T06:51:15;2.87;;;2.30;;
92;SDS011;16232;48.800;9.002;2023-06-05T06:53:42;2.50;;;2.30;;
92;SDS011;16232;48.800;9.002;2023-06-05T06:56:10;3.27;;;2.13;;
92;SDS011;16232;48.800;9.002;2023-06-05T06:58:37;4.50;;;2.50;;
92;SDS011;16232;48.800;9.002;2023-06-05T07:01:05;2.50;;;2.30;;
92;SDS011;16232;48.800;9.002;2023-06-05T07:03:32;2.93;;;2.43;;
92;SDS011;16232;48.800;9.002;2023-06-05T07:06:02;4.23;;;2.33;;
92;SDS011;16232;48.800;9.002;2023-06-05T07:08:29;3.97;;;2.00;;
92;SDS011;16232;48.800;9.002;2023-06-05T07:10:57;3.00;;;2.30;;
92;SDS011;16232;48.800;9.002;2023-06-05T07:13:24;4.97;;;2.53;;
92;SDS011;16232;48.800;9.002;2023-06-05T07:15:52;2.97;;;2.17;;
92;SDS011;16232;48.800;9.002;2023-06-05T07:18:19;3.00;;;2.17;;
92;SDS011;16232;48.800;9.002;2023-06-05T07:20:46;3.07;;;2.60;;
92;SDS011;16232;48.800;9.002;2023-06-05T07:23:15;3.07;;;2.43;;
92;SDS011;16232;48.800;9.002;2023-06-05T07:25:43;5.23;;;2.67;;
92;SDS011;16232;48.800;9.002;2023-06-05T07:28:10;4.20;;;2.47;;
92;SDS011;16232;48.800;9.002;2023-06-05T07:30:38;3.20;;;2.90;;
92;SDS011;16232;48.800;9.002;2023-06-05T07:33:08;4.33;;;2.27;;
92;SDS011;16232;48.800;9.002;2023-06-05T07:35:36;4.27;;;3.20;;
92;SDS011;16232;48.800;9.002;2023-06-05T07:38:04;3.07;;;2.63;;
92;SDS011;16232;48.800;9.002;2023-06-05T07:40:32;3.97;;;2.90;;
92;SDS011;16232;48.800;9.002;2023-06-05T07:43:00;4.87;;;2.60;;
92;SDS011;16232;48.800;9.002;2023-06-05T07:45:27;5.73;;;2.90;;
92;SDS011;16232;48.800;9.002;2023-06-05T07:47:55;4.40;;;3.00;;
92;SDS011;16232;48.800;9.002;2023-06-05T07:50:22;4.97;;;2.97;;
92;SDS011;16232;48.800;9.002;2023-06-05T07:52:50;4.90;;;2.57;;
92;SDS011;16232;48.800;9.002;2023-06-05T07:55:18;4.33;;;3.20;;
92;SDS011;16232;48.800;9.002;2023-06-05T07:57:47;6.47;;;2.63;;
92;SDS011;16232;48.800;9.002;2023-06-05T08:00:18;5.40;;;2.90;;
92;SDS011;16232;48.800;9.002;2023-06-05T08:02:45;3.00;;;2.70;;
92;SDS011;16232;48.800;9.002;2023-06-05T08:05:13;4.70;;;3.03;;
92;SDS011;16232;48.800;9.002;2023-06-05T08:07:41;3.60;;;2.97;;
92;SDS011;16232;48.800;9.002;2023-06-05T08:10:09;7.97;;;3.23;;
92;SDS011;16232;48.800;9.002;2023-06-05T08:12:36;3.43;;;3.13;;
92;SDS011;16232;48.800;9.002;2023-06-05T08:15:06;3.00;;;2.80;;
92;SDS011;16232;48.800;9.002;2023-06-05T08:17:34;3.70;;;2.80;;
92;SDS011;16232;48.800;9.002;2023-06-05T08:20:01;7.33;;;3.40;;
92;SDS011;16232;48.800;9.002;2023-06-05T08:22:30;5.33;;;3.10;;
92;SDS011;16232;48.800;9.002;2023-06-05T08:24:58;2.77;;;2.50;;
92;SDS011;16232;48.800;9.002;2023-06-05T08:27:25;4.37;;;3.07;;
92;SDS011;16232;48.800;9.002;2023-06-05T08:29:53;5.10;;;3.37;;
92;SDS011;16232;48.800;9.002;2023-06-05T08:32:21;3.70;;;3.40;;
92;SDS011;16232;48.800;9.002;2023-06-05T08:34:49;5.87;;;3.77;;
92;SDS011;16232;48.800;9.002;2023-06-05T08:37:16;3.87;;;3.47;;
92;SDS011;16232;48.800;9.002;2023-06-05T08:39:44;6.17;;;3.67;;
92;SDS011;16232;48.800;9.002;2023-06-05T08:42:12;4.30;;;3.47;;
92;SDS011;16232;48.800;9.002;2023-06-05T08:44:43;3.97;;;3.17;;
92;SDS011;16232;48.800;9.002;2023-06-05T08:47:12;5.20;;;3.67;;
92;SDS011;16232;48.800;9.002;2023-06-05T08:49:42;5.13;;;3.70;;
92;SDS011;16232;48.800;9.002;2023-06-05T08:52:10;4.10;;;3.80;;
92;SDS011;16232;48.800;9.002;2023-06-05T08:54:39;6.17;;;3.93;;
92;SDS011;16232;48.800;9.002;2023-06-05T08:57:08;4.37;;;3.73;;
92;SDS011;16232;48.800;9.002;2023-06-05T08:59:36;4.33;;;3.93;;
92;SDS011;16232;48.800;9.002;2023-06-05T09:02:03;5.63;;;3.92;;
92;SDS011;16232;48.800;9.002;2023-06-05T09:04:31;4.60;;;3.50;;
92;SDS011;16232;48.800;9.002;2023-06-05T09:06:59;4.07;;;3.63;;
92;SDS011;16232;48.800;9.002;2023-06-05T09:09:27;4.32;;;3.60;;
92;SDS011;16232;48.800;9.002;2023-06-05T09:12:01;5.45;;;4.05;;
92;SDS011;16232;48.800;9.002;2023-06-05T09:14:29;4.82;;;3.75;;
92;SDS011;16232;48.800;9.002;2023-06-05T09:16:58;6.03;;;3.50;;
92;SDS011;16232;48.800;9.002;2023-06-05T09:19:28;3.78;;;3.47;;
92;SDS011;16232;48.800;9.002;2023-06-05T09:22:05;5.95;;;4.30;;
92;SDS011;16232;48.800;9.002;2023-06-05T09:24:33;3.85;;;3.55;;
92;SDS011;16232;48.800;9.002;2023-06-05T09:27:02;3.88;;;3.47;;
92;SDS011;16232;48.800;9.002;2023-06-05T09:29:33;4.70;;;3.80;;
92;SDS011;16232;48.800;9.002;2023-06-05T09:32:02;6.47;;;4.15;;
92;SDS011;16232;48.800;9.002;2023-06-05T09:34:30;4.38;;;3.50;;
92;SDS011;16232;48.800;9.002;2023-06-05T09:36:58;4.53;;;4.05;;
92;SDS011;16232;48.800;9.002;2023-06-05T09:39:28;4.50;;;3.75;;
92;SDS011;16232;48.800;9.002;2023-06-05T09:41:57;4.78;;;3.50;;
92;SDS011;16232;48.800;9.002;2023-06-05T09:44:25;6.22;;;3.78;;
92;SDS011;16232;48.800;9.002;2023-06-05T09:46:57;5.13;;;3.63;;
92;SDS011;16232;48.800;9.002;2023-06-05T09:49:25;3.90;;;3.60;;
92;SDS011;16232;48.800;9.002;2023-06-05T09:51:53;5.10;;;4.27;;
92;SDS011;16232;48.800;9.002;2023-06-05T09:54:21;4.63;;;3.40;;
92;SDS011;16232;48.800;9.002;2023-06-05T09:56:50;4.40;;;4.00;;
92;SDS011;16232;48.800;9.002;2023-06-05T09:59:20;7.00;;;3.90;;
92;SDS011;16232;48.800;9.002;2023-06-05T10:01:49;4.63;;;4.07;;
92;SDS011;16232;48.800;9.002;2023-06-05T10:04:18;5.93;;;3.60;;
92;SDS011;16232;48.800;9.002;2023-06-05T10:06:46;5.87;;;3.73;;
92;SDS011;16232;48.800;9.002;2023-06-05T10:09:14;4.07;;;3.67;;
92;SDS011;16232;48.800;9.002;2023-06-05T10:11:41;6.00;;;3.25;;
92;SDS011;16232;48.800;9.002;2023-06-05T10:14:11;4.47;;;3.55;;
92;SDS011;16232;48.800;9.002;2023-06-05T10:16:38;6.72;;;3.92;;
92;SDS011;16232;48.800;9.002;2023-06-05T10:19:06;4.63;;;3.83;;
92;SDS011;16232;48.800;9.002;2023-06-05T10:21:34;4.73;;;3.33;;
92;SDS011;16232;48.800;9.002;2023-06-05T10:24:02;3.63;;;3.23;;
92;SDS011;16232;48.800;9.002;2023-06-05T10:26:35;4.37;;;3.90;;
92;SDS011;16232;48.800;9.002;2023-06-05T10:29:08;4.83;;;3.67;;
92;SDS011;16232;48.800;9.002;2023-06-05T10:31:43;4.50;;;3.47;;
92;SDS011;16232;48.800;9.002;2023-06-05T10:39:47;4.13;;;3.80;;
92;SDS011;16232;48.800;9.002;2023-06-05T10:42:21;5.63;;;3.93;;
92;SDS011;16232;48.800;9.002;2023-06-05T10:44:49;4.20;;;3.80;;
92;SDS011;16232;48.800;9.002;2023-06-05T10:50:26;7.20;;;3.80;;
92;SDS011;16232;48.800;9.002;2023-06-05T10:52:56;6.00;;;3.57;;
92;SDS011;16232;48.800;9.002;2023-06-05T10:55:26;4.57;;;4.18;;
92;SDS011;16232;48.800;9.002;2023-06-05T10:58:04;4.18;;;3.42;;
92;SDS011;16232;48.800;9.002;2023-06-05T11:00:32;3.72;;;3.42;;
92;SDS011;16232;48.800;9.002;2023-06-05T11:03:00;4.28;;;3.50;;
92;SDS011;16232;48.800;9.002;2023-06-05T11:05:29;4.80;;;3.60;;
92;SDS011;16232;48.800;9.002;2023-06-05T11:08:10;5.43;;;3.25;;
92;SDS011;16232;48.800;9.002;2023-06-05T11:10:41;3.60;;;3.30;;
92;SDS011;16232;48.800;9.002;2023-06-05T11:16:24;4.80;;;3.00;;
92;SDS011;16232;48.800;9.002;2023-06-05T11:18:52;4.20;;;2.78;;
92;SDS011;16232;48.800;9.002;2023-06-05T11:21:21;4.38;;;3.22;;
92;SDS011;16232;48.800;9.002;2023-06-05T11:26:38;5.07;;;3.20;;
92;SDS011;16232;48.800;9.002;2023-06-05T11:29:14;5.55;;;3.20;;
92;SDS011;16232;48.800;9.002;2023-06-05T11:31:42;3.17;;;2.88;;
92;SDS011;16232;48.800;9.002;2023-06-05T11:34:10;3.58;;;2.83;;
92;SDS011;16232;48.800;9.002;2023-06-05T11:36:40;5.00;;;3.28;;
92;SDS011;16232;48.800;9.002;2023-06-05T11:39:07;4.45;;;2.50;;
92;SDS011;16232;48.800;9.002;2023-06-05T11:41:42;3.67;;;2.70;;
92;SDS011;16232;48.800;9.002;2023-06-05T11:44:10;3.78;;;2.67;;
92;SDS011;16232;48.800;9.002;2023-06-05T11:46:37;2.65;;;2.45;;
92;SDS011;16232;48.800;9.002;2023-06-05T11:49:05;2.67;;;2.45;;
92;SDS011;16232;48.800;9.002;2023-06-05T11:51:33;2.80;;;2.60;;
92;SDS011;16232;48.800;9.002;2023-06-05T11:54:02;5.63;;;3.08;;
92;SDS011;16232;48.800;9.002;2023-06-05T11:56:31;3.45;;;2.95;;
92;SDS011;16232;48.800;9.002;2023-06-05T11:58:58;4.40;;;2.15;;
92;SDS011;16232;48.800;9.002;2023-06-05T12:01:26;2.85;;;2.63;;
92;SDS011;16232;48.800;9.002;2023-06-05T12:04:01;4.78;;;2.40;;
92;SDS011;16232;48.800;9.002;2023-06-05T12:06:29;3.42;;;2.90;;
92;SDS011;16232;48.800;9.002;2023-06-05T12:09:07;2.97;;;2.47;;
92;SDS011;16232;48.800;9.002;2023-06-05T12:11:35;4.05;;;2.67;;
92;SDS011;16232;48.800;9.002;2023-06-05T12:14:04;3.92;;;3.05;;
92;SDS011;16232;48.800;9.002;2023-06-05T12:16:32;4.65;;;3.08;;
92;SDS011;16232;48.800;9.002;2023-06-05T12:19:00;3.30;;;2.92;;
92;SDS011;16232;48.800;9.002;2023-06-05T12:21:28;4.35;;;3.28;;
92;SDS011;16232;48.800;9.002;2023-06-05T12:24:02;3.60;;;3.10;;
92;SDS011;16232;48.800;9.002;2023-06-05T12:26:37;3.42;;;3.08;;
92;SDS011;16232;48.800;9.002;2023-06-05T12:29:17;3.22;;;2.90;;
92;SDS011;16232;48.800;9.002;2023-06-05T12:31:45;3.58;;;2.38;;
92;SDS011;16232;48.800;9.002;2023-06-05T12:34:13;3.95;;;2.85;;
92;SDS011;16232;48.800;9.002;2023-06-05T12:36:41;7.93;;;3.13;;
92;SDS011;16232;48.800;9.002;2023-06-05T12:39:09;5.07;;;3.10;;
92;SDS011;16232;48.800;9.002;2023-06-05T12:41:39;3.50;;;3.08;;
92;SDS011;16232;48.800;9.002;2023-06-05T12:44:10;3.53;;;3.22;;
92;SDS011;16232;48.800;9.002;2023-06-05T12:46:37;3.28;;;2.95;;
92;SDS011;16232;48.800;9.002;2023-06-05T12:49:05;3.05;;;2.75;;
92;SDS011;16232;48.800;9.002;2023-06-05T12:51:33;3.97;;;3.10;;
92;SDS011;16232;48.800;9.002;2023-06-05T12:54:01;3.67;;;2.67;;
92;SDS011;16232;48.800;9.002;2023-06-05T12:56:29;4.03;;;2.85;;
92;SDS011;16232;48.800;9.002;2023-06-05T12:59:03;5.18;;;2.90;;
92;SDS011;16232;48.800;9.002;2023-06-05T13:01:30;3.58;;;2.80;;
92;SDS011;16232;48.800;9.002;2023-06-05T13:04:01;5.40;;;3.17;;
92;SDS011;16232;48.800;9.002;2023-06-05T13:06:29;8.60;;;3.15;;
92;SDS011;16232;48.800;9.002;2023-06-05T13:08:58;3.97;;;3.03;;
92;SDS011;16232;48.800;9.002;2023-06-05T13:11:25;7.28;;;3.50;;
92;SDS011;16232;48.800;9.002;2023-06-05T13:13:53;5.13;;;2.88;;
92;SDS011;16232;48.800;9.002;2023-06-05T13:16:22;6.43;;;3.22;;
92;SDS011;16232;48.800;9.002;2023-06-05T13:18:49;3.92;;;3.53;;
92;SDS011;16232;48.800;9.002;2023-06-05T13:21:17;3.72;;;2.88;;
92;SDS011;16232;48.800;9.002;2023-06-05T13:23:44;3.33;;;2.90;;
92;SDS011;16232;48.800;9.002;2023-06-05T13:26:12;4.50;;;3.38;;
92;SDS011;16232;48.800;9.002;2023-06-05T13:28:39;4.68;;;2.88;;
92;SDS011;16232;48.800;9.002;2023-06-05T13:31:09;5.32;;;3.13;;
92;SDS011;16232;48.800;9.002;2023-06-05T13:33:40;3.38;;;3.08;;
92;SDS011;16232;48.800;9.002;2023-06-05T13:36:07;4.18;;;3.10;;
92;SDS011;16232;48.800;9.002;2023-06-05T13:38:34;3.28;;;2.97;;
92;SDS011;16232;48.800;9.002;2023-06-05T13:41:03;3.40;;;3.10;;
92;SDS011;16232;48.800;9.002;2023-06-05T13:43:30;4.45;;;3.30;;
92;SDS011;16232;48.800;9.002;2023-06-05T13:45:59;3.83;;;3.40;;
92;SDS011;16232;48.800;9.002;2023-06-05T13:48:27;4.40;;;3.70;;
92;SDS011;16232;48.800;9.002;2023-06-05T13:50:56;4.47;;;3.43;;
92;SDS011;16232;48.800;9.002;2023-06-05T13:53:24;6.07;;;3.30;;
92;SDS011;16232;48.800;9.002;2023-06-05T13:55:52;4.30;;;3.23;;
92;SDS011;16232;48.800;9.002;2023-06-05T13:58:19;4.40;;;3.10;;
92;SDS011;16232;48.800;9.002;2023-06-05T14:00:47;3.97;;;3.63;;
92;SDS011;16232;48.800;9.002;2023-06-05T14:03:14;4.23;;;3.73;;
92;SDS011;16232;48.800;9.002;2023-06-05T14:05:42;3.60;;;3.30;;
92;SDS011;16232;48.800;9.002;2023-06-05T14:08:11;4.73;;;4.23;;
92;SDS011;16232;48.800;9.002;2023-06-05T14:10:38;4.47;;;3.60;;
92;SDS011;16232;48.800;9.002;2023-06-05T14:13:05;4.07;;;3.43;;
92;SDS011;16232;48.800;9.002;2023-06-05T14:15:33;5.43;;;3.73;;
92;SDS011;16232;48.800;9.002;2023-06-05T14:18:02;4.07;;;3.57;;
92;SDS011;16232;48.800;9.002;2023-06-05T14:20:30;3.77;;;3.47;;
92;SDS011;16232;48.800;9.002;2023-06-05T14:22:58;4.90;;;3.90;;
92;SDS011;16232;48.800;9.002;2023-06-05T14:25:28;3.87;;;3.50;;
92;SDS011;16232;48.800;9.002;2023-06-05T14:27:56;5.17;;;3.37;;
92;SDS011;16232;48.800;9.002;2023-06-05T14:30:24;3.93;;;3.50;;
92;SDS011;16232;48.800;9.002;2023-06-05T14:32:52;3.53;;;3.23;;
92;SDS011;16232;48.800;9.002;2023-06-05T14:35:20;4.00;;;3.40;;
92;SDS011;16232;48.800;9.002;2023-06-05T14:37:47;3.50;;;3.20;;
92;SDS011;16232;48.800;9.002;2023-06-05T14:40:15;5.70;;;3.60;;
92;SDS011;16232;48.800;9.002;2023-06-05T14:42:44;5.67;;;3.37;;
92;SDS011;16232;48.800;9.002;2023-06-05T14:45:11;5.00;;;3.57;;
92;SDS011;16232;48.800;9.002;2023-06-05T14:47:39;8.23;;;3.83;;
92;SDS011;16232;48.800;9.002;2023-06-05T14:50:06;4.13;;;3.50;;
92;SDS011;16232;48.800;9.002;2023-06-05T14:52:34;3.50;;;3.20;;
92;SDS011;16232;48.800;9.002;2023-06-05T14:55:02;5.50;;;3.57;;
92;SDS011;16232;48.800;9.002;2023-06-05T14:57:29;3.70;;;3.40;;
92;SDS011;16232;48.800;9.002;2023-06-05T14:59:58;3.93;;;3.20;;
92;SDS011;16232;48.800;9.002;2023-06-05T15:02:27;5.13;;;3.53;;
92;SDS011;16232;48.800;9.002;2023-06-05T15:04:54;3.43;;;3.13;;
92;SDS011;16232;48.800;9.002;2023-06-05T15:07:23;5.67;;;3.53;;
92;SDS011;16232;48.800;9.002;2023-06-05T15:09:51;4.83;;;3.43;;
92;SDS011;16232;48.800;9.002;2023-06-05T15:12:18;6.17;;;3.40;;
92;SDS011;16232;48.800;9.002;2023-06-05T15:14:46;3.80;;;3.40;;
92;SDS011;16232;48.800;9.002;2023-06-05T15:17:14;3.70;;;2.90;;
92;SDS011;16232;48.800;9.002;2023-06-05T15:19:42;4.03;;;2.83;;
92;SDS011;16232;48.800;9.002;2023-06-05T15:22:10;4.60;;;3.00;;
92;SDS011;16232;48.800;9.002;2023-06-05T15:24:37;3.33;;;2.70;;
92;SDS011;16232;48.800;9.002;2023-06-05T15:27:05;4.43;;;3.43;;
92;SDS011;16232;48.800;9.002;2023-06-05T15:29:33;3.07;;;2.80;;
92;SDS011;16232;48.800;9.002;2023-06-05T15:32:00;3.20;;;2.90;;
92;SDS011;16232;48.800;9.002;2023-06-05T15:34:29;4.07;;;3.30;;
92;SDS011;16232;48.800;9.002;2023-06-05T15:36:57;6.07;;;3.07;;
92;SDS011;16232;48.800;9.002;2023-06-05T15:39:24;6.80;;;3.30;;
92;SDS011;16232;48.800;9.002;2023-06-05T15:41:51;3.20;;;2.90;;
92;SDS011;16232;48.800;9.002;2023-06-05T15:44:19;5.50;;;3.17;;
92;SDS011;16232;48.800;9.002;2023-06-05T15:46:46;4.03;;;3.20;;
92;SDS011;16232;48.800;9.002;2023-06-05T15:49:14;3.23;;;2.97;;
92;SDS011;16232;48.800;9.002;2023-06-05T15:51:42;3.53;;;2.87;;